createdAt,value
2019-02-07T00:00:50.851Z,40.00
2019-02-07T00:03:19.856Z,39.80
2019-02-07T00:05:48.937Z,39.10
2019-02-07T00:08:18.392Z,39.10
2019-02-07T00:10:47.447Z,39.80
2019-02-07T00:13:16.668Z,39.20
2019-02-07T00:15:45.652Z,39.10
2019-02-07T00:18:14.855Z,39.50
2019-02-07T00:20:44.574Z,39.70
2019-02-07T00:23:13.480Z,40.00
2019-02-07T00:25:42.428Z,39.40
2019-02-07T00:28:11.348Z,39.90
2019-02-07T00:30:40.328Z,39.80
2019-02-07T00:33:09.204Z,40.10
2019-02-07T00:35:38.240Z,39.70
2019-02-07T00:38:07.156Z,39.70
2019-02-07T00:40:36.144Z,39.00
2019-02-07T00:43:05.140Z,39.00
2019-02-07T00:45:34.076Z,39.00
2019-02-07T00:48:03.392Z,39.90
2019-02-07T00:50:32.189Z,39.80
2019-02-07T00:53:01.167Z,39.60
2019-02-07T00:55:30.138Z,39.80
2019-02-07T00:57:59.140Z,39.70
2019-02-07T01:00:28.089Z,40.30
2019-02-07T01:02:57.108Z,40.60
2019-02-07T01:05:26.288Z,40.40
2019-02-07T01:07:55.249Z,40.00
2019-02-07T01:10:25.721Z,39.40
2019-02-07T01:12:55.100Z,39.10
2019-02-07T01:15:25.394Z,39.00
2019-02-07T01:17:54.383Z,39.40
2019-02-07T01:20:23.405Z,39.50
2019-02-07T01:22:52.365Z,39.70
2019-02-07T01:25:21.785Z,39.80
2019-02-07T01:27:50.985Z,39.60
2019-02-07T01:30:21.448Z,39.00
2019-02-07T01:32:50.516Z,39.00
2019-02-07T01:35:19.512Z,39.00
2019-02-07T01:37:48.508Z,38.70
2019-02-07T01:40:18.384Z,38.80
2019-02-07T01:42:47.640Z,39.00
2019-02-07T01:45:19.055Z,39.00
2019-02-07T01:47:48.056Z,38.90
2019-02-07T01:50:19.148Z,39.10
2019-02-07T01:52:48.509Z,39.00
2019-02-07T01:55:17.808Z,39.00
2019-02-07T01:57:46.761Z,39.00
2019-02-07T02:00:17.050Z,39.00
2019-02-07T02:02:46.772Z,39.00
2019-02-07T02:05:17.072Z,38.50
2019-02-07T02:07:47.156Z,38.40
2019-02-07T02:10:18.844Z,38.50
2019-02-07T02:12:47.812Z,38.80
2019-02-07T02:15:24.729Z,39.00
2019-02-07T02:17:51.095Z,39.00
2019-02-07T02:20:21.323Z,38.80
2019-02-07T02:22:50.688Z,38.30
2019-02-07T02:25:19.828Z,38.30
2019-02-07T02:27:48.740Z,38.70
2019-02-07T02:30:21.662Z,39.10
2019-02-07T02:32:50.625Z,39.40
2019-02-07T02:35:20.191Z,39.70
2019-02-07T02:37:49.157Z,39.60
2019-02-07T02:40:18.437Z,40.30
2019-02-07T02:42:47.420Z,40.80
2019-02-07T02:45:16.901Z,40.70
2019-02-07T02:47:45.905Z,40.90
2019-02-07T02:50:16.684Z,40.90
2019-02-07T02:52:45.845Z,41.10
2019-02-07T02:55:40.340Z,40.70
2019-02-07T02:58:09.319Z,41.00
2019-02-07T03:00:58.061Z,41.00
2019-02-07T03:03:49.374Z,40.90
2019-02-07T03:06:36.280Z,39.70
2019-02-07T03:09:36.257Z,39.20
2019-02-07T03:12:40.161Z,39.10
2019-02-07T03:15:26.257Z,40.60
2019-02-07T03:18:12.862Z,41.30
2019-02-07T03:21:09.948Z,42.10
2019-02-07T03:24:08.108Z,42.00
2019-02-07T03:26:57.656Z,42.40
2019-02-07T03:29:48.581Z,42.60
2019-02-07T03:32:26.793Z,42.60
2019-02-07T03:35:18.049Z,42.50
2019-02-07T03:37:57.536Z,41.80
2019-02-07T03:40:46.805Z,41.10
2019-02-07T03:43:25.460Z,41.40
2019-02-07T03:46:16.552Z,42.50
2019-02-07T03:48:53.600Z,43.30
2019-02-07T03:51:40.348Z,43.60
2019-02-07T03:54:28.399Z,43.10
2019-02-07T03:57:14.981Z,42.40
2019-02-07T04:00:08.988Z,42.20
2019-02-07T04:02:56.625Z,44.20
2019-02-07T04:05:43.597Z,45.40
2019-02-07T04:08:37.871Z,45.30
2019-02-07T04:11:25.052Z,44.80
2019-02-07T04:14:31.487Z,45.40
2019-02-07T04:17:24.811Z,44.50
2019-02-07T04:20:15.517Z,45.00
2019-02-07T04:22:59.691Z,45.20
2019-02-07T04:25:47.657Z,45.50
2019-02-07T04:28:22.100Z,45.40
2019-02-07T04:31:08.788Z,45.40
2019-02-07T04:33:55.768Z,45.50
2019-02-07T04:36:42.745Z,45.10
2019-02-07T04:39:40.533Z,44.80
2019-02-07T04:42:26.840Z,44.20
2019-02-07T04:45:14.713Z,44.10
2019-02-07T04:48:04.749Z,43.40
2019-02-07T04:50:57.119Z,43.60
2019-02-07T04:53:39.629Z,43.60
2019-02-07T04:56:24.140Z,43.50
2019-02-07T04:59:21.204Z,43.40
2019-02-07T05:02:24.645Z,42.80
2019-02-07T05:05:18.729Z,42.70
2019-02-07T05:08:06.800Z,42.70
2019-02-07T05:10:53.432Z,43.20
2019-02-07T05:13:33.445Z,43.30
2019-02-07T05:16:13.843Z,44.00
2019-02-07T05:18:53.288Z,43.00
2019-02-07T05:21:41.157Z,44.60
2019-02-07T05:24:32.080Z,44.90
2019-02-07T05:27:38.684Z,44.40
2019-02-07T05:30:29.190Z,44.30
2019-02-07T05:33:17.149Z,44.20
2019-02-07T05:36:03.964Z,43.80
2019-02-07T05:38:46.946Z,43.70
2019-02-07T05:41:29.176Z,43.60
2019-02-07T05:44:17.385Z,43.20
2019-02-07T05:47:01.477Z,43.40
2019-02-07T05:49:57.766Z,42.60
2019-02-07T05:52:52.645Z,42.70
2019-02-07T05:55:41.089Z,42.50
2019-02-07T05:58:28.428Z,42.00
2019-02-07T06:01:18.124Z,42.00
2019-02-07T06:03:53.961Z,41.80
2019-02-07T06:07:00.277Z,41.90
2019-02-07T06:09:49.929Z,42.10
2019-02-07T06:12:46.536Z,42.10
2019-02-07T06:15:31.644Z,41.90
2019-02-07T06:18:19.517Z,41.50
2019-02-07T06:21:13.862Z,41.20
2019-02-07T06:24:14.001Z,41.30
2019-02-07T06:27:17.004Z,41.00
2019-02-07T06:30:04.865Z,40.60
2019-02-07T06:33:07.764Z,40.70
2019-02-07T06:35:44.148Z,41.20
2019-02-07T06:38:30.728Z,41.00
2019-02-07T06:41:16.024Z,41.20
2019-02-07T06:43:51.982Z,41.40
2019-02-07T06:46:46.040Z,42.00
2019-02-07T06:49:36.793Z,42.10
2019-02-07T06:52:27.921Z,42.00
2019-02-07T06:55:15.904Z,42.40
2019-02-07T06:58:02.629Z,41.70
2019-02-07T07:00:49.473Z,41.80
2019-02-07T07:03:37.532Z,42.50
2019-02-07T07:06:25.561Z,42.30
2019-02-07T07:09:09.170Z,42.50
2019-02-07T07:12:06.363Z,42.30
2019-02-07T07:15:03.578Z,42.20
2019-02-07T07:18:03.920Z,42.50
2019-02-07T07:20:50.968Z,41.80
2019-02-07T07:23:37.900Z,41.10
2019-02-07T07:26:31.941Z,41.10
2019-02-07T07:29:19.973Z,41.00
2019-02-07T07:32:08.784Z,40.70
2019-02-07T07:34:50.677Z,40.60
2019-02-07T07:37:39.044Z,40.80
2019-02-07T07:40:27.346Z,39.80
2019-02-07T07:43:18.887Z,40.80
2019-02-07T07:46:04.760Z,41.40
2019-02-07T07:48:47.100Z,41.90
2019-02-07T07:51:35.088Z,42.40
2019-02-07T07:54:23.653Z,42.40
2019-02-07T07:57:14.828Z,42.30
2019-02-07T08:00:04.552Z,42.50
2019-02-07T08:03:07.916Z,42.30
2019-02-07T08:05:47.441Z,41.80
2019-02-07T08:08:34.204Z,42.00
2019-02-07T08:11:25.261Z,42.30
2019-02-07T08:14:12.464Z,42.00
2019-02-07T08:16:59.131Z,41.70
2019-02-07T08:19:51.941Z,42.00
2019-02-07T08:22:38.885Z,42.10
2019-02-07T08:25:35.667Z,41.90
2019-02-07T08:28:16.252Z,41.90
2019-02-07T08:31:13.488Z,41.70
2019-02-07T08:33:55.877Z,41.70
2019-02-07T08:36:53.120Z,42.50
2019-02-07T08:39:39.340Z,42.50
2019-02-07T08:42:39.609Z,42.30
2019-02-07T08:45:35.046Z,42.30
2019-02-07T08:48:23.412Z,42.20
2019-02-07T08:51:12.677Z,42.30
2019-02-07T08:54:05.337Z,41.50
2019-02-07T08:56:59.473Z,41.40
2019-02-07T08:59:50.905Z,41.40
2019-02-07T09:02:38.350Z,42.70
2019-02-07T09:05:42.058Z,42.60
2019-02-07T09:08:26.816Z,42.50
2019-02-07T09:11:30.104Z,42.50
2019-02-07T09:14:21.300Z,42.40
2019-02-07T09:17:15.184Z,43.00
2019-02-07T09:20:09.297Z,43.50
2019-02-07T09:22:55.382Z,45.20
2019-02-07T09:25:41.892Z,44.60
2019-02-07T09:28:39.116Z,44.90
2019-02-07T09:31:25.963Z,45.80
2019-02-07T09:34:17.018Z,46.20
2019-02-07T09:37:07.968Z,46.70
2019-02-07T09:40:01.720Z,47.30
2019-02-07T09:42:48.392Z,48.00
2019-02-07T09:45:37.660Z,48.40
2019-02-07T09:48:25.613Z,48.50
2019-02-07T09:51:05.208Z,49.30
2019-02-07T09:53:45.728Z,49.80
2019-02-07T09:56:32.604Z,50.50
2019-02-07T09:59:26.893Z,50.70
2019-02-07T10:02:10.584Z,51.70
2019-02-07T10:04:57.217Z,51.90
2019-02-07T10:07:43.772Z,52.00
2019-02-07T10:10:23.378Z,52.40
2019-02-07T10:13:14.548Z,52.60
2019-02-07T10:16:03.912Z,53.20
2019-02-07T10:18:51.243Z,54.60
2019-02-07T10:21:54.803Z,54.50
2019-02-07T10:24:42.895Z,55.20
2019-02-07T10:27:22.708Z,56.30
2019-02-07T10:30:10.692Z,57.80
2019-02-07T10:32:55.612Z,58.00
2019-02-07T10:35:43.500Z,58.10
2019-02-07T10:38:40.596Z,60.10
2019-02-07T10:41:32.065Z,62.00
2019-02-07T10:44:38.725Z,61.90
2019-02-07T10:47:26.685Z,63.20
2019-02-07T10:50:27.376Z,64.10
2019-02-07T10:53:21.284Z,64.40
2019-02-07T10:56:17.360Z,65.70
2019-02-07T10:59:14.213Z,66.10
2019-02-07T11:02:13.444Z,66.60
2019-02-07T11:05:00.378Z,67.40
2019-02-07T11:08:00.622Z,66.90
2019-02-07T11:10:56.681Z,67.50
2019-02-07T11:13:56.897Z,67.50
2019-02-07T11:16:51.061Z,67.60
2019-02-07T11:19:54.184Z,67.60
2019-02-07T11:22:47.228Z,67.40
2019-02-07T11:25:44.717Z,66.60
2019-02-07T11:28:39.700Z,67.70
2019-02-07T11:31:18.204Z,67.60
2019-02-07T11:34:04.856Z,67.90
2019-02-07T11:36:54.131Z,67.90
2019-02-07T11:39:53.628Z,68.00
2019-02-07T11:42:51.064Z,68.00
2019-02-07T11:45:37.405Z,68.10
2019-02-07T11:48:31.824Z,67.80
2019-02-07T11:51:27.504Z,67.00
2019-02-07T11:54:27.380Z,67.50
2019-02-07T11:57:30.833Z,67.10
2019-02-07T12:00:18.951Z,67.40
2019-02-07T12:03:05.628Z,67.20
2019-02-07T12:05:56.333Z,66.70
2019-02-07T12:08:53.344Z,66.90
2019-02-07T12:11:50.597Z,66.80
2019-02-07T12:14:31.296Z,67.40
2019-02-07T12:17:17.800Z,66.50
2019-02-07T12:20:24.173Z,67.20
2019-02-07T12:23:11.052Z,66.40
2019-02-07T12:25:59.280Z,67.60
2019-02-07T12:28:39.791Z,67.30
2019-02-07T12:31:33.020Z,67.50
2019-02-07T12:34:20.692Z,66.70
2019-02-07T12:36:56.118Z,67.00
2019-02-07T12:39:35.060Z,67.10
2019-02-07T12:42:17.348Z,67.10
2019-02-07T12:45:05.300Z,67.30
2019-02-07T12:48:08.351Z,67.70
2019-02-07T12:51:02.304Z,67.20
2019-02-07T12:53:50.297Z,67.30
2019-02-07T12:56:51.172Z,67.00
2019-02-07T12:59:54.765Z,65.50
2019-02-07T13:02:41.061Z,65.40
2019-02-07T13:05:32.810Z,63.70
2019-02-07T13:08:10.568Z,63.60
2019-02-07T13:10:56.633Z,62.30
2019-02-07T13:13:43.444Z,61.80
2019-02-07T13:16:23.544Z,61.10
2019-02-07T13:19:10.665Z,60.80
2019-02-07T13:21:53.512Z,60.60
2019-02-07T13:24:41.493Z,61.10
2019-02-07T13:27:29.718Z,60.30
2019-02-07T13:30:19.226Z,60.00
2019-02-07T13:32:59.501Z,59.50
2019-02-07T13:35:46.199Z,59.20
2019-02-07T13:38:25.532Z,59.20
2019-02-07T13:41:19.556Z,59.00
2019-02-07T13:44:13.304Z,58.70
2019-02-07T13:46:53.307Z,58.40
2019-02-07T13:49:34.788Z,58.00
2019-02-07T13:52:29.347Z,58.50
2019-02-07T13:55:12.099Z,57.50
2019-02-07T13:57:58.852Z,57.90
2019-02-07T14:00:55.968Z,56.50
2019-02-07T14:03:56.032Z,55.60
2019-02-07T14:06:56.025Z,54.30
2019-02-07T14:09:52.944Z,53.50
2019-02-07T14:12:39.441Z,52.60
2019-02-07T14:15:28.417Z,53.10
2019-02-07T14:18:27.190Z,52.30
2019-02-07T14:21:08.160Z,52.70
2019-02-07T14:23:55.106Z,52.50
2019-02-07T14:26:55.444Z,51.50
2019-02-07T14:29:42.601Z,50.70
2019-02-07T14:32:29.701Z,50.10
2019-02-07T14:35:27.048Z,50.40
2019-02-07T14:38:14.449Z,47.40
2019-02-07T14:41:20.776Z,44.60
2019-02-07T14:44:02.580Z,43.10
2019-02-07T14:46:47.895Z,43.90
2019-02-07T14:49:17.076Z,40.80
2019-02-07T14:51:46.327Z,40.50
2019-02-07T14:54:15.780Z,39.40
2019-02-07T14:56:44.898Z,39.30
2019-02-07T14:59:14.160Z,39.10
2019-02-07T15:01:43.097Z,38.90
2019-02-07T15:04:12.089Z,39.70
2019-02-07T15:06:41.548Z,39.20
2019-02-07T15:09:16.568Z,40.20
2019-02-07T15:11:45.556Z,38.90
2019-02-07T15:14:14.620Z,39.20
2019-02-07T15:16:43.693Z,39.40
2019-02-07T15:19:12.708Z,39.90
2019-02-07T15:21:41.740Z,42.00
2019-02-07T15:24:11.204Z,43.50
2019-02-07T15:26:40.481Z,44.50
2019-02-07T15:29:09.424Z,46.20
2019-02-07T15:31:38.331Z,46.40
2019-02-07T15:34:08.796Z,46.90
2019-02-07T15:36:38.936Z,47.00
2019-02-07T15:39:10.248Z,48.00
2019-02-07T15:41:39.240Z,48.00
2019-02-07T15:44:08.237Z,48.40
2019-02-07T15:46:37.292Z,48.70
2019-02-07T15:49:06.995Z,48.90
2019-02-07T15:51:35.860Z,49.00
2019-02-07T15:54:05.509Z,47.90
2019-02-07T15:56:34.528Z,48.40
2019-02-07T15:59:28.872Z,48.00
2019-02-07T16:02:11.460Z,47.80
2019-02-07T16:04:42.880Z,47.40
2019-02-07T16:07:12.061Z,47.10
2019-02-07T16:09:41.442Z,46.90
2019-02-07T16:12:10.424Z,46.80
2019-02-07T16:14:39.968Z,47.50
2019-02-07T16:17:08.952Z,47.80
2019-02-07T16:19:37.865Z,48.50
2019-02-07T16:22:06.824Z,48.60
2019-02-07T16:24:35.876Z,49.20
2019-02-07T16:27:05.773Z,50.10
2019-02-07T16:29:34.777Z,50.20
2019-02-07T16:32:04.961Z,50.40
2019-02-07T16:34:33.874Z,50.70
2019-02-07T16:37:03.111Z,50.70
2019-02-07T16:39:31.976Z,50.70
2019-02-07T16:42:06.079Z,50.50
2019-02-07T16:44:31.623Z,50.00
2019-02-07T16:47:00.618Z,50.90
2019-02-07T16:49:29.576Z,51.70
2019-02-07T16:51:58.456Z,52.00
2019-02-07T16:54:27.628Z,52.10
2019-02-07T16:56:56.533Z,53.00
2019-02-07T16:59:25.538Z,53.10
2019-02-07T17:01:54.556Z,51.90
2019-02-07T17:04:23.540Z,51.80
2019-02-07T17:06:52.477Z,51.10
2019-02-07T17:09:30.522Z,50.50
2019-02-07T17:12:01.019Z,50.80
2019-02-07T17:14:30.325Z,51.10
2019-02-07T17:17:18.345Z,51.80
2019-02-07T17:19:47.291Z,53.00
2019-02-07T17:22:16.252Z,54.60
2019-02-07T17:24:45.908Z,55.10
2019-02-07T17:27:15.156Z,54.50
2019-02-07T17:29:44.316Z,55.80
2019-02-07T17:32:13.600Z,56.00
2019-02-07T17:34:42.488Z,56.40
2019-02-07T17:37:11.281Z,56.00
2019-02-07T17:39:40.264Z,56.20
2019-02-07T17:42:09.208Z,56.00
2019-02-07T17:44:38.194Z,54.30
2019-02-07T17:47:10.265Z,52.10
2019-02-07T17:49:38.200Z,50.60
2019-02-07T17:52:07.554Z,49.80
2019-02-07T17:54:36.623Z,48.70
2019-02-07T17:57:05.877Z,49.50
2019-02-07T17:59:34.874Z,49.00
2019-02-07T18:02:06.316Z,48.60
2019-02-07T18:04:35.343Z,48.70
2019-02-07T18:07:04.936Z,48.60
2019-02-07T18:09:33.857Z,48.80
2019-02-07T18:12:02.786Z,50.30
2019-02-07T18:14:31.664Z,51.10
2019-02-07T18:17:00.605Z,53.00
2019-02-07T18:19:29.616Z,55.60
2019-02-07T18:21:58.608Z,57.20
2019-02-07T18:24:27.845Z,59.40
2019-02-07T18:26:57.456Z,59.40
2019-02-07T18:29:26.366Z,59.30
2019-02-07T18:31:55.243Z,59.30
2019-02-07T18:34:24.444Z,59.70
2019-02-07T18:36:53.248Z,59.20
2019-02-07T18:39:22.228Z,59.20
2019-02-07T18:41:51.652Z,58.60
2019-02-07T18:44:20.541Z,59.20
2019-02-07T18:46:49.460Z,59.00
2019-02-07T18:49:18.408Z,58.40
2019-02-07T18:51:47.232Z,57.90
2019-02-07T18:54:16.115Z,58.90
2019-02-07T18:56:45.396Z,58.80
2019-02-07T18:59:14.412Z,59.10
2019-02-07T19:01:43.491Z,58.50
2019-02-07T19:04:13.380Z,58.40
2019-02-07T19:06:42.388Z,56.50
2019-02-07T19:09:11.365Z,56.40
2019-02-07T19:11:40.264Z,57.60
2019-02-07T19:14:09.452Z,57.30
2019-02-07T19:16:38.409Z,57.60
2019-02-07T19:19:07.337Z,57.20
2019-02-07T19:21:36.233Z,58.40
2019-02-07T19:24:05.723Z,58.00
2019-02-07T19:26:34.680Z,58.30
2019-02-07T19:29:04.277Z,59.20
2019-02-07T19:31:33.519Z,59.20
2019-02-07T19:34:02.464Z,59.30
2019-02-07T19:36:31.828Z,60.30
2019-02-07T19:39:00.772Z,60.90
2019-02-07T19:41:29.562Z,60.30
2019-02-07T19:43:58.629Z,61.50
2019-02-07T19:46:27.889Z,61.70
2019-02-07T19:48:56.909Z,61.10
2019-02-07T19:51:25.796Z,60.60
2019-02-07T19:53:54.796Z,60.70
2019-02-07T19:56:23.632Z,59.60
2019-02-07T19:58:52.674Z,59.10
2019-02-07T20:01:21.758Z,58.00
2019-02-07T20:03:50.858Z,56.80
2019-02-07T20:06:19.811Z,56.80
2019-02-07T20:08:48.808Z,58.00
2019-02-07T20:11:17.704Z,58.10
2019-02-07T20:13:46.690Z,58.10
2019-02-07T20:16:15.772Z,58.30
2019-02-07T20:18:45.384Z,59.40
2019-02-07T20:21:14.704Z,61.30
2019-02-07T20:23:43.950Z,62.10
2019-02-07T20:26:12.880Z,63.30
2019-02-07T20:28:42.127Z,64.60
2019-02-07T20:31:12.180Z,64.10
2019-02-07T20:33:41.464Z,65.60
2019-02-07T20:36:10.560Z,65.50
2019-02-07T20:38:39.516Z,64.90
2019-02-07T20:41:08.460Z,64.50
2019-02-07T20:43:37.900Z,65.80
2019-02-07T20:46:07.446Z,67.50
2019-02-07T20:48:36.427Z,67.60
2019-02-07T20:51:05.430Z,67.60
2019-02-07T20:53:34.232Z,67.30
2019-02-07T20:56:03.354Z,65.40
2019-02-07T20:58:32.356Z,66.40
2019-02-07T21:01:01.564Z,65.20
2019-02-07T21:03:30.844Z,66.00
2019-02-07T21:06:00.047Z,65.20
2019-02-07T21:08:29.588Z,65.30
2019-02-07T21:10:58.580Z,65.30
2019-02-07T21:13:27.564Z,65.10
2019-02-07T21:15:56.481Z,65.50
2019-02-07T21:18:25.527Z,65.10
2019-02-07T21:20:54.411Z,64.30
2019-02-07T21:23:23.324Z,64.80
2019-02-07T21:25:52.860Z,64.70
2019-02-07T21:28:22.148Z,65.10
2019-02-07T21:30:51.201Z,64.70
2019-02-07T21:33:20.149Z,64.80
2019-02-07T21:35:49.140Z,65.40
2019-02-07T21:38:18.065Z,64.90
2019-02-07T21:40:47.162Z,64.80
2019-02-07T21:43:16.448Z,64.00
2019-02-07T21:45:45.350Z,63.10
2019-02-07T21:48:14.239Z,62.70
2019-02-07T21:50:43.211Z,62.10
2019-02-07T21:53:12.172Z,63.00
2019-02-07T21:55:41.172Z,63.60
2019-02-07T21:58:12.095Z,63.10
2019-02-07T22:00:43.248Z,62.80
2019-02-07T22:03:14.084Z,63.10
2019-02-07T22:05:43.751Z,62.80
2019-02-07T22:08:12.980Z,62.50
2019-02-07T22:10:42.284Z,61.80
2019-02-07T22:13:11.881Z,61.50
2019-02-07T22:15:40.836Z,60.80
2019-02-07T22:18:10.290Z,59.80
2019-02-07T22:20:39.268Z,59.30
2019-02-07T22:23:08.260Z,59.50
2019-02-07T22:25:37.245Z,60.50
2019-02-07T22:28:07.408Z,61.20
2019-02-07T22:30:36.704Z,61.40
2019-02-07T22:33:06.300Z,61.50
2019-02-07T22:35:35.554Z,61.60
2019-02-07T22:38:05.524Z,61.30
2019-02-07T22:40:34.537Z,61.20
2019-02-07T22:43:03.776Z,60.00
2019-02-07T22:45:32.701Z,59.90
2019-02-07T22:48:01.708Z,60.20
2019-02-07T22:50:31.676Z,58.70
2019-02-07T22:53:01.277Z,58.70
2019-02-07T22:55:30.272Z,58.70
2019-02-07T22:57:59.562Z,58.70
2019-02-07T23:01:09.588Z,58.00
2019-02-07T23:03:40.596Z,58.70
2019-02-07T23:06:10.064Z,58.60
2019-02-07T23:08:39.359Z,58.60
2019-02-07T23:11:09.356Z,58.60
2019-02-07T23:13:38.428Z,59.10
2019-02-07T23:16:09.011Z,59.50
2019-02-07T23:18:38.816Z,59.70
2019-02-07T23:21:08.567Z,59.20
2019-02-07T23:23:37.540Z,59.20
2019-02-07T23:26:07.567Z,58.60
2019-02-07T23:28:37.270Z,59.10
2019-02-07T23:31:08.148Z,59.00
2019-02-07T23:33:38.144Z,59.40
2019-02-07T23:36:08.538Z,59.40
2019-02-07T23:38:37.547Z,58.90
2019-02-07T23:41:10.497Z,59.10
2019-02-07T23:43:45.966Z,58.80
2019-02-07T23:46:11.303Z,58.60
2019-02-07T23:48:40.641Z,58.60
2019-02-07T23:51:09.849Z,58.60
2019-02-07T23:53:38.832Z,57.50
2019-02-07T23:56:08.539Z,57.10
2019-02-07T23:58:37.656Z,57.80
